Home   Weather   Whittaker Track   Past weeks
Flag for USA

Past Weather in Whittaker Track, Ohio, USA — Yesterday and Last 2 Weeks

Currently: 40 °F. Overcast. (Weather station: Toledo Suburban Airport, USA). See more current weather

Past Weather in Whittaker Track — Graph

°F

Whittaker Track Temperature Yesterday

Maximum temperature yesterday: 55 °F (at 5:15 pm)
Minimum temperature yesterday: 35 °F (at 7:35 am)
Average temperature yesterday: 44 °F

High & Low Weather Summary for the Past Weeks

 TemperatureHumidityPressure
High59 °F (Mar 21, 4:35 pm)100% (Mar 23, 12:55 am)30.33 "Hg (Mar 23, 12:55 am)
Low21 °F (Mar 19, 2:35 am)19% (Mar 21, 5:15 pm)29.29 "Hg (Mar 25, 12:35 pm)
Average38 °F71%29.99 "Hg
* Reported Mar 12 1:15 pm — Mar 27 1:15 pm, Whittaker Track. Weather by CustomWeather, © 2023

Note: Actual official high and low records may vary slightly from our data, if they occured in-between our weather recording intervals... More about our weather records

Whittaker Track Weather History for the Previous 24 Hours

Scroll right to see more
 ConditionsComfort  
Time TempWeatherWind HumidityBarometerVisibility
1:15 pm
Mon, Mar 27
40 °FOvercast.12 mph89%30.02 "Hg10 mi
12:55 pm40 °FOvercast.9 mph92%30.02 "Hg7 mi
12:35 pm40 °FFog.9 mph93%30.02 "Hg5 mi
12:15 pm40 °FOvercast.6 mph90%30.00 "Hg10 mi
11:55 am41 °FLow clouds.9 mph91%29.99 "Hg10 mi
11:35 am42 °FLow clouds.6 mph92%29.98 "Hg10 mi
11:15 am41 °FLow clouds.8 mph93%29.98 "Hg10 mi
10:55 am41 °FLow clouds.7 mph94%29.98 "Hg10 mi
10:35 am42 °FLow clouds.6 mph95%29.98 "Hg7 mi
10:15 am42 °FFog.7 mph95%29.96 "Hg5 mi
9:35 am42 °FFog.7 mph97%29.95 "Hg2 mi
9:15 am43 °FFog.8 mph97%29.94 "Hg2 mi
8:35 am43 °FFog.7 mph97%29.93 "Hg4 mi
8:15 am43 °FFog.6 mph97%29.92 "Hg5 mi
7:55 am42 °FMostly cloudy.5 mph97%29.92 "Hg7 mi
7:35 am42 °FLow clouds.No wind96%29.93 "Hg10 mi
7:15 am42 °FMostly cloudy.5 mph96%29.92 "Hg10 mi
6:55 am42 °FPassing clouds.5 mph95%29.91 "Hg10 mi
6:35 am42 °FPassing clouds.3 mph94%29.90 "Hg10 mi
6:15 am42 °FPassing clouds.No wind94%29.90 "Hg10 mi
5:35 am43 °FMostly cloudy.3 mph93%29.89 "Hg10 mi
5:15 am43 °FPassing clouds.3 mph93%29.90 "Hg10 mi
4:35 am42 °FPartly cloudy.6 mph93%29.89 "Hg10 mi
4:15 am42 °FMostly cloudy.7 mph92%29.90 "Hg10 mi
3:35 am43 °FOvercast.5 mph93%29.89 "Hg10 mi
3:15 am43 °FMostly cloudy.5 mph93%29.90 "Hg10 mi
2:55 am43 °FPartly cloudy.5 mph91%29.91 "Hg10 mi
2:35 am43 °FLight rain. Overcast.6 mph90%29.91 "Hg3 mi
2:15 am44 °FOvercast.3 mph84%29.91 "Hg10 mi
1:35 am44 °FLight rain. Overcast.6 mph80%29.93 "Hg7 mi
12:55 am45 °FMostly cloudy.7 mph76%29.93 "Hg10 mi
12:35 am44 °FMostly cloudy.8 mph78%29.92 "Hg10 mi
12:15 am44 °FOvercast.9 mph81%29.93 "Hg10 mi
11:55 pm
Sun, Mar 26
44 °FLight rain. Mostly cloudy.7 mph80%29.95 "Hg10 mi
11:35 pm46 °FOvercast.10 mph71%29.95 "Hg10 mi
11:15 pm46 °FMostly cloudy.10 mph72%29.94 "Hg10 mi
10:55 pm46 °FMostly cloudy.3 mph69%29.92 "Hg10 mi
10:15 pm46 °FPassing clouds.No wind71%29.93 "Hg10 mi
9:35 pm47 °FClear.3 mph67%29.94 "Hg10 mi
9:15 pm48 °FClear.5 mph66%29.93 "Hg10 mi
8:55 pm49 °FPassing clouds.3 mph65%29.93 "Hg10 mi
7:35 pm53 °FOvercast.No wind54%29.95 "Hg10 mi
7:15 pm53 °FOvercast.No wind55%29.95 "Hg10 mi
6:55 pm53 °FPartly sunny.No wind55%29.96 "Hg10 mi
6:35 pm54 °FScattered clouds.No wind53%29.97 "Hg10 mi
6:15 pm54 °FSunny.No wind50%29.98 "Hg10 mi
5:55 pm54 °FScattered clouds.No wind51%29.98 "Hg10 mi
5:35 pm55 °FBroken clouds.5 mph50%29.99 "Hg10 mi
5:15 pm55 °FMostly cloudy.No wind49%29.98 "Hg10 mi
3:35 pm53 °FMostly cloudy.8 mph50%29.99 "Hg10 mi
3:15 pm54 °FBroken clouds.8 mph48%29.99 "Hg10 mi
2:35 pm53 °FScattered clouds.5 mph49%29.99 "Hg10 mi
2:15 pm54 °FSunny.9 mph47%29.99 "Hg10 mi
Weather by CustomWeather, © 2023

See weather overview